TAF Text Data
IDs:
Format:
Raw Decoded Include METAR

Data at: 2029 UTC 01 Oct 2022

VVNB 012000Z 07007KT 9999 BKN022 OVC046 25/24 Q1010 NOSIG

TAF VVNB 011700Z 0118/0218 07005KT 8000 SCT020 BKN040
  TEMPO 0120/0202 4000 -RA BR
  TEMPO 0204/0208 3000 +RA SCT010 FEW020TCU